Time;durP1;ratioP1;P1;durP2;ratioP2;P2;SDS_P1;SDS_P2;PMS_P1;PMS_P2;Temp;Humidity;BMP_temperature;BMP_pressure;BME280_temperature;BME280_humidity;BME280_pressure;Samples;Min_cycle;Max_cycle;Signal;HPM_P1;HPM_P2
2022/06/27 00:01:35;;;;;;;;;;;;;;;26.36;100.00;97481.94;5055854;28;19948;-74
2022/06/27 00:04:01;;;;;;;;;;;;;;;26.44;100.00;97486.31;5056819;28;19925;-73
2022/06/27 00:06:28;;;;;;;;;;;;;;;26.43;100.00;97477.31;5060210;28;20137;-74
2022/06/27 00:08:54;;;;;;;;;;;;;;;26.33;100.00;97480.75;5060163;28;19924;-73
2022/06/27 00:11:21;;;;;;;;;;;;;;;26.32;100.00;97475.63;5040333;28;19925;-73
2022/06/27 00:13:48;;;;;;;;;;;;;;;26.35;100.00;97483.88;5056626;28;19921;-73
2022/06/27 00:16:16;;;;;;;;;;;;;;;26.34;100.00;97490.50;5058054;28;19951;-74
2022/06/27 00:18:43;;;;;;;;;;;;;;;26.31;100.00;97494.00;5059818;28;19924;-74
2022/06/27 00:21:10;;;;;;;;;;;;;;;26.40;100.00;97472.56;5059242;28;19984;-72
2022/06/27 00:23:36;;;;;;;;;;;;;;;26.30;100.00;97473.28;5055864;28;19925;-73
2022/06/27 00:26:03;;;;;;;;;;;;;;;26.28;100.00;97465.44;5055596;28;19932;-73
2022/06/27 00:28:29;;;;;;;;;;;;;;;26.31;100.00;97458.41;5058830;28;19932;-73
2022/06/27 00:30:56;;;;;;;;;;;;;;;26.03;100.00;97469.03;5058169;28;19984;-72
2022/06/27 00:33:24;;;;;;;;;;;;;;;26.14;100.00;97478.97;5038930;28;19924;-73
2022/06/27 00:35:50;;;;;;;;;;;;;;;26.24;100.00;97469.31;5055964;28;19955;-72
2022/06/27 00:38:17;;;;;;;;;;;;;;;26.22;100.00;97468.88;5057377;28;19947;-73
2022/06/27 00:40:44;;;;;;;;;;;;;;;26.22;100.00;97472.41;5059119;28;20010;-74
2022/06/27 00:43:10;;;;;;;;;;;;;;;26.34;100.00;97463.13;5057572;28;19925;-73
2022/06/27 00:45:37;;;;;;;;;;;;;;;26.44;98.98;97469.88;5054876;28;19933;-73
2022/06/27 00:48:03;;;;;;;;;;;;;;;26.48;98.09;97473.44;5054832;28;19948;-73
2022/06/27 00:50:31;;;;;;;;;;;;;;;26.43;99.91;97469.09;5058439;28;19931;-73
2022/06/27 00:52:58;;;;;;;;;;;;;;;26.47;99.30;97472.66;5058180;28;20596;-73
2022/06/27 00:55:24;;;;;;;;;;;;;;;26.33;100.00;97472.53;5055952;28;19928;-73
2022/06/27 00:57:51;;;;;;;;;;;;;;;25.96;100.00;97464.28;5053555;28;19925;-73
2022/06/27 01:00:18;;;;;;;;;;;;;;;26.09;100.00;97464.81;5056136;28;19975;-73
2022/06/27 01:02:44;;;;;;;;;;;;;;;26.13;100.00;97457.41;5058250;28;19947;-73
2022/06/27 01:05:12;;;;;;;;;;;;;;;26.16;100.00;97456.69;5057498;28;19947;-73
2022/06/27 01:07:40;;;;;;;;;;;;;;;26.12;100.00;97456.63;5054734;28;19925;-73
2022/06/27 01:10:07;;;;;;;;;;;;;;;26.12;100.00;97472.28;5054680;28;19948;-73
2022/06/27 01:12:33;;;;;;;;;;;;;;;26.07;100.00;97472.59;5058192;28;19920;-73
2022/06/27 01:15:00;;;;;;;;;;;;;;;26.08;100.00;97480.47;5057940;28;19984;-73
2022/06/27 01:17:27;;;;;;;;;;;;;;;26.05;100.00;97481.22;5049575;28;19929;-73
2022/06/27 01:19:53;;;;;;;;;;;;;;;26.03;100.00;97485.44;5057921;28;19928;-72
2022/06/27 01:22:21;;;;;;;;;;;;;;;25.93;100.00;97484.19;5057813;28;19952;-72
2022/06/27 01:24:47;;;;;;;;;;;;;;;25.95;100.00;97487.34;5040126;28;19925;-72
2022/06/27 01:27:14;;;;;;;;;;;;;;;25.90;100.00;97486.88;5056878;28;19924;-72
2022/06/27 01:29:40;;;;;;;;;;;;;;;25.88;100.00;97500.13;5054470;28;19925;-72
2022/06/27 01:32:07;;;;;;;;;;;;;;;25.84;100.00;97499.31;5054116;28;19936;-73
2022/06/27 01:34:33;;;;;;;;;;;;;;;25.85;100.00;97493.47;5057744;28;19955;-72
2022/06/27 01:37:00;;;;;;;;;;;;;;;25.89;100.00;97485.31;5057772;28;19925;-73
2022/06/27 01:39:28;;;;;;;;;;;;;;;25.91;100.00;97482.97;5054892;28;19929;-72
2022/06/27 01:41:55;;;;;;;;;;;;;;;25.41;100.00;97476.84;5054495;28;20033;-73
2022/06/27 01:44:23;;;;;;;;;;;;;;;24.79;100.00;97475.50;5057076;28;19991;-73
2022/06/27 01:46:50;;;;;;;;;;;;;;;24.18;100.00;97465.50;5058745;28;19925;-72
2022/06/27 01:49:17;;;;;;;;;;;;;;;23.99;100.00;97467.44;5057011;28;19951;-72
2022/06/27 01:51:45;;;;;;;;;;;;;;;24.98;100.00;97463.72;5046204;28;19957;-72
2022/06/27 01:54:12;;;;;;;;;;;;;;;24.71;100.00;97471.09;5057513;28;19925;-73
2022/06/27 01:56:40;;;;;;;;;;;;;;;25.32;100.00;97467.34;5059747;28;19928;-73
2022/06/27 01:59:07;;;;;;;;;;;;;;;25.46;100.00;97468.34;5058438;28;19925;-73
2022/06/27 02:01:33;;;;;;;;;;;;;;;25.50;100.00;97469.19;5053283;28;19952;-73
2022/06/27 02:04:00;;;;;;;;;;;;;;;25.46;100.00;97468.34;5056653;28;19921;-73
2022/06/27 02:06:28;;;;;;;;;;;;;;;25.43;100.00;97471.81;5060658;28;20000;-73
2022/06/27 02:08:56;;;;;;;;;;;;;;;25.56;100.00;97464.97;5043532;28;19952;-73
2022/06/27 02:11:22;;;;;;;;;;;;;;;25.12;100.00;97469.41;5059454;28;19925;-72
2022/06/27 02:13:50;;;;;;;;;;;;;;;25.18;100.00;97476.13;5057599;28;19932;-74
2022/06/27 02:16:18;;;;;;;;;;;;;;;25.35;100.00;97472.84;5042968;28;19925;-73
2022/06/27 02:18:45;;;;;;;;;;;;;;;25.44;100.00;97478.06;5063228;28;19936;-72
2022/06/27 02:21:13;;;;;;;;;;;;;;;25.56;100.00;97481.38;5063496;28;19936;-73
2022/06/27 02:23:39;;;;;;;;;;;;;;;25.52;100.00;97483.28;5060324;28;19925;-73
2022/06/27 02:26:07;;;;;;;;;;;;;;;25.56;100.00;97494.28;5058429;28;19921;-73
2022/06/27 02:28:34;;;;;;;;;;;;;;;25.54;100.00;97491.91;5049400;28;19921;-73
2022/06/27 02:31:02;;;;;;;;;;;;;;;25.42;100.00;97494.03;5032330;28;19925;-73
2022/06/27 02:33:33;;;;;;;;;;;;;;;25.52;100.00;97496.16;5049378;28;19952;-74
2022/06/27 02:36:01;;;;;;;;;;;;;;;25.46;100.00;97498.41;5049928;28;19988;-72
2022/06/27 02:38:28;;;;;;;;;;;;;;;25.43;100.00;97504.63;5049400;28;19925;-72
2022/06/27 02:40:57;;;;;;;;;;;;;;;25.49;100.00;97511.38;5031128;28;19955;-73
2022/06/27 02:43:23;;;;;;;;;;;;;;;25.56;100.00;97522.38;5048024;28;19925;-72
2022/06/27 02:45:50;;;;;;;;;;;;;;;25.50;100.00;97529.34;5048241;28;19948;-72
2022/06/27 02:48:20;;;;;;;;;;;;;;;25.53;100.00;97514.16;5048080;28;20015;-74
2022/06/27 02:50:47;;;;;;;;;;;;;;;25.53;100.00;97525.84;5053451;28;19935;-72
2022/06/27 02:53:17;;;;;;;;;;;;;;;25.46;100.00;97533.16;5056555;28;20008;-72
2022/06/27 02:55:44;;;;;;;;;;;;;;;25.48;100.00;97531.63;5057465;28;19925;-72
2022/06/27 02:58:13;;;;;;;;;;;;;;;25.45;100.00;97537.03;5057862;28;19933;-72
2022/06/27 03:00:41;;;;;;;;;;;;;;;25.44;100.00;97538.97;5060258;28;19966;-72
2022/06/27 03:03:12;;;;;;;;;;;;;;;25.38;100.00;97536.97;5060382;28;19924;-72
2022/06/27 03:05:53;;;;;;;;;;;;;;;25.48;100.00;97542.56;5057375;28;19925;-72
2022/06/27 03:08:21;;;;;;;;;;;;;;;25.48;100.00;97534.38;5059397;28;19948;-73
2022/06/27 03:10:47;;;;;;;;;;;;;;;25.34;100.00;97536.91;5060570;28;19970;-72
2022/06/27 03:13:13;;;;;;;;;;;;;;;24.61;100.00;97562.59;5058892;28;19959;-72
2022/06/27 03:15:40;;;;;;;;;;;;;;;24.65;100.00;97655.50;5055049;28;20677;-73
2022/06/27 03:18:07;;;;;;;;;;;;;;;23.93;100.00;97668.75;5056485;28;19948;-73
2022/06/27 03:20:33;;;;;;;;;;;;;;;23.82;100.00;97675.13;5059974;28;19921;-73
2022/06/27 03:23:00;;;;;;;;;;;;;;;23.76;100.00;97617.34;5059972;28;19920;-73
2022/06/27 03:25:27;;;;;;;;;;;;;;;24.00;100.00;97635.41;5057109;28;19951;-73
2022/06/27 03:27:54;;;;;;;;;;;;;;;23.97;100.00;97677.81;5055162;28;20036;-73
2022/06/27 03:30:20;;;;;;;;;;;;;;;24.30;100.00;97652.84;5058331;28;19971;-73
2022/06/27 03:32:47;;;;;;;;;;;;;;;24.63;100.00;97661.31;5059835;28;19920;-73
2022/06/27 03:35:13;;;;;;;;;;;;;;;24.28;100.00;97627.84;5058660;28;19943;-73
2022/06/27 03:37:39;;;;;;;;;;;;;;;23.83;100.00;97633.84;5054982;28;19925;-73
2022/06/27 03:40:06;;;;;;;;;;;;;;;24.25;100.00;97660.53;5056078;28;19947;-73
2022/06/27 03:42:34;;;;;;;;;;;;;;;24.02;100.00;97603.09;5041735;28;19924;-73
2022/06/27 03:45:00;;;;;;;;;;;;;;;24.02;100.00;97595.72;5041625;28;19925;-73
2022/06/27 03:47:27;;;;;;;;;;;;;;;24.40;100.00;97635.09;5038983;28;19933;-73
2022/06/27 03:50:01;;;;;;;;;;;;;;;23.57;100.00;97574.47;5055827;28;19925;-73
2022/06/27 03:52:28;;;;;;;;;;;;;;;23.94;100.00;97615.00;5059106;28;20008;-72
2022/06/27 03:54:54;;;;;;;;;;;;;;;24.09;100.00;97625.06;5059375;28;19925;-72
2022/06/27 03:57:20;;;;;;;;;;;;;;;24.16;100.00;97619.81;5057554;28;19928;-73
2022/06/27 03:59:48;;;;;;;;;;;;;;;24.49;100.00;97627.47;5054378;28;19929;-73
2022/06/27 04:02:16;;;;;;;;;;;;;;;23.80;100.00;97601.06;5056470;28;19948;-72
2022/06/27 04:04:42;;;;;;;;;;;;;;;23.90;100.00;97630.50;5058850;28;19932;-73
2022/06/27 04:07:09;;;;;;;;;;;;;;;24.27;100.00;97617.28;5057377;28;19967;-73
2022/06/27 04:09:36;;;;;;;;;;;;;;;24.62;100.00;97624.25;5055370;28;19953;-73
2022/06/27 04:12:02;;;;;;;;;;;;;;;24.76;100.00;97626.44;5054059;28;19975;-73
2022/06/27 04:14:28;;;;;;;;;;;;;;;24.89;100.00;97618.91;5058338;28;19925;-73
2022/06/27 04:16:56;;;;;;;;;;;;;;;24.34;100.00;97620.97;5040979;28;19921;-72
2022/06/27 04:19:23;;;;;;;;;;;;;;;24.61;100.00;97619.94;5056564;28;19924;-72
2022/06/27 04:21:49;;;;;;;;;;;;;;;24.71;100.00;97627.53;5055717;28;19959;-73
2022/06/27 04:24:15;;;;;;;;;;;;;;;23.86;100.00;97616.00;5056810;28;20004;-73
2022/06/27 04:26:42;;;;;;;;;;;;;;;23.53;100.00;97600.88;5059057;28;19925;-73
2022/06/27 04:29:08;;;;;;;;;;;;;;;23.33;100.00;97588.31;5041017;28;19984;-73
2022/06/27 04:31:35;;;;;;;;;;;;;;;23.29;100.00;97586.63;5037976;28;19929;-73
2022/06/27 04:34:04;;;;;;;;;;;;;;;23.39;100.00;97586.91;5055747;28;19952;-73
2022/06/27 04:36:31;;;;;;;;;;;;;;;23.63;100.00;97572.25;5058827;28;19925;-73
2022/06/27 04:38:58;;;;;;;;;;;;;;;23.58;100.00;97569.81;5058941;28;19925;-73
2022/06/27 04:41:25;;;;;;;;;;;;;;;23.23;100.00;97582.59;5056890;28;19964;-73
2022/06/27 04:43:52;;;;;;;;;;;;;;;23.82;100.00;97579.69;5037973;28;19924;-73
2022/06/27 04:46:18;;;;;;;;;;;;;;;23.77;100.00;97579.97;5057567;28;19925;-72
2022/06/27 04:48:45;;;;;;;;;;;;;;;23.75;100.00;97577.59;5059231;28;20000;-73
2022/06/27 04:51:13;;;;;;;;;;;;;;;23.62;100.00;97587.03;5058094;28;19924;-73
2022/06/27 04:53:40;;;;;;;;;;;;;;;23.85;100.00;97571.59;5054513;28;19921;-72
2022/06/27 04:56:08;;;;;;;;;;;;;;;24.20;100.00;97574.28;5054365;28;19929;-72
2022/06/27 04:58:34;;;;;;;;;;;;;;;24.46;100.00;97577.13;5046411;28;19927;-73
2022/06/27 05:01:01;;;;;;;;;;;;;;;24.60;100.00;97585.56;5046393;28;19977;-73
2022/06/27 05:03:28;;;;;;;;;;;;;;;24.24;100.00;97585.25;5028780;28;19929;-73
2022/06/27 05:05:54;;;;;;;;;;;;;;;23.86;100.00;97570.41;5036510;28;19975;-73
2022/06/27 05:08:22;;;;;;;;;;;;;;;23.71;100.00;97571.25;5046251;28;19925;-73
2022/06/27 05:10:48;;;;;;;;;;;;;;;23.80;100.00;97563.66;5052096;28;19927;-72
2022/06/27 05:13:15;;;;;;;;;;;;;;;23.87;100.00;97568.47;5056975;28;19951;-74
2022/06/27 05:15:42;;;;;;;;;;;;;;;23.81;100.00;97553.56;5055470;28;19939;-73
2022/06/27 05:18:08;;;;;;;;;;;;;;;23.78;100.00;97557.00;5038551;28;19951;-73
2022/06/27 05:20:34;;;;;;;;;;;;;;;23.90;100.00;97559.59;5042591;28;19920;-73
2022/06/27 05:23:01;;;;;;;;;;;;;;;24.21;100.00;97566.88;5040582;28;19929;-73
2022/06/27 05:25:29;;;;;;;;;;;;;;;24.09;100.00;97574.03;5054905;28;19921;-73
2022/06/27 05:27:58;;;;;;;;;;;;;;;24.30;100.00;97570.97;5054399;28;19939;-74
2022/06/27 05:30:24;;;;;;;;;;;;;;;24.37;100.00;97568.38;5056600;28;19968;-73
2022/06/27 05:32:50;;;;;;;;;;;;;;;24.78;100.00;97564.06;5039724;28;19956;-72
2022/06/27 05:35:17;;;;;;;;;;;;;;;25.03;100.00;97564.53;5038591;28;19929;-72
2022/06/27 05:37:43;;;;;;;;;;;;;;;25.40;100.00;97560.03;5053998;28;19921;-72
2022/06/27 05:40:10;;;;;;;;;;;;;;;25.65;100.00;97557.69;5055362;28;19940;-74
2022/06/27 05:42:38;;;;;;;;;;;;;;;25.67;100.00;97571.78;5059735;28;19951;-75
2022/06/27 05:45:05;;;;;;;;;;;;;;;25.62;100.00;97574.84;5060805;28;19996;-75
2022/06/27 05:47:32;;;;;;;;;;;;;;;25.77;100.00;97571.13;5059310;28;19924;-74
2022/06/27 05:50:00;;;;;;;;;;;;;;;25.70;100.00;97566.34;5058608;28;19921;-75
2022/06/27 05:52:27;;;;;;;;;;;;;;;25.90;99.99;97583.44;5060012;28;19989;-74
2022/06/27 05:54:54;;;;;;;;;;;;;;;25.54;100.00;97582.13;5058084;28;19962;-74
2022/06/27 05:57:24;;;;;;;;;;;;;;;26.00;100.00;97580.03;5038087;28;19925;-74
2022/06/27 05:59:53;;;;;;;;;;;;;;;26.08;100.00;97586.41;5054758;28;20380;-75
2022/06/27 06:02:21;;;;;;;;;;;;;;;26.07;100.00;97584.81;5056030;28;19935;-75
2022/06/27 06:04:47;;;;;;;;;;;;;;;26.32;100.00;97579.66;5057849;28;19948;-75
2022/06/27 06:07:14;;;;;;;;;;;;;;;26.42;97.70;97581.75;5056647;28;19932;-75
2022/06/27 06:09:41;;;;;;;;;;;;;;;26.50;100.00;97591.59;5054016;28;19921;-74
2022/06/27 06:12:09;;;;;;;;;;;;;;;26.43;100.00;97592.31;5054370;28;19942;-74
2022/06/27 06:14:36;;;;;;;;;;;;;;;26.12;100.00;97596.22;5057582;28;19984;-75
2022/06/27 06:17:04;;;;;;;;;;;;;;;26.51;99.98;97596.72;5040565;28;19936;-74
2022/06/27 06:19:31;;;;;;;;;;;;;;;26.39;98.76;97593.44;5054357;28;19921;-74
2022/06/27 06:21:57;;;;;;;;;;;;;;;26.33;98.52;97593.00;5054748;28;20235;-74
2022/06/27 06:24:25;;;;;;;;;;;;;;;26.42;99.43;97576.25;5057142;28;19936;-74
2022/06/27 06:26:53;;;;;;;;;;;;;;;26.44;100.00;97582.94;5057464;28;19925;-75
2022/06/27 06:29:22;;;;;;;;;;;;;;;26.29;99.66;97578.47;5056646;28;19925;-74
2022/06/27 06:31:49;;;;;;;;;;;;;;;26.21;100.00;97587.75;5057668;28;19975;-74
2022/06/27 06:34:18;;;;;;;;;;;;;;;26.10;100.00;97595.00;5057171;28;20305;-74
2022/06/27 06:36:45;;;;;;;;;;;;;;;26.35;100.00;97598.88;5060480;28;19975;-74
2022/06/27 06:39:12;;;;;;;;;;;;;;;26.43;100.00;97588.81;5042055;28;19961;-74
2022/06/27 06:41:40;;;;;;;;;;;;;;;26.41;100.00;97589.16;5057317;28;19951;-74
2022/06/27 06:44:06;;;;;;;;;;;;;;;26.46;100.00;97588.06;5039786;28;19953;-75
2022/06/27 06:46:33;;;;;;;;;;;;;;;26.39;100.00;97591.50;5049068;28;19976;-75
2022/06/27 06:49:05;;;;;;;;;;;;;;;26.49;100.00;97595.53;5049247;28;19951;-75
2022/06/27 06:51:34;;;;;;;;;;;;;;;26.61;100.00;97608.97;5058188;28;19932;-75
2022/06/27 06:54:01;;;;;;;;;;;;;;;26.68;100.00;97614.50;5057604;28;19952;-75
2022/06/27 06:56:28;;;;;;;;;;;;;;;26.90;99.81;97615.53;5060320;28;19972;-75
2022/06/27 06:58:55;;;;;;;;;;;;;;;26.86;99.59;97620.22;5043069;28;19967;-74
2022/06/27 07:01:22;;;;;;;;;;;;;;;26.70;100.00;97620.41;5058468;28;19935;-75
2022/06/27 07:03:49;;;;;;;;;;;;;;;26.68;100.00;97609.81;5038884;28;19925;-73
2022/06/27 07:06:17;;;;;;;;;;;;;;;26.47;100.00;97619.72;5057983;28;19925;-73
2022/06/27 07:08:46;;;;;;;;;;;;;;;26.13;100.00;97627.91;5058668;28;20000;-73
2022/06/27 07:11:12;;;;;;;;;;;;;;;26.06;100.00;97627.00;5059509;28;19931;-74
2022/06/27 07:13:39;;;;;;;;;;;;;;;26.24;100.00;97626.09;5056710;28;19935;-73
2022/06/27 07:16:06;;;;;;;;;;;;;;;26.17;100.00;97623.31;5056737;28;19952;-74
2022/06/27 07:18:32;;;;;;;;;;;;;;;26.40;100.00;97625.91;5048185;28;19943;-74
2022/06/27 07:21:00;;;;;;;;;;;;;;;26.14;100.00;97623.22;5055861;28;19925;-75
2022/06/27 07:23:27;;;;;;;;;;;;;;;26.30;100.00;97629.34;5057034;28;19924;-73
2022/06/27 07:25:55;;;;;;;;;;;;;;;26.48;100.00;97624.84;5055212;28;19925;-74
2022/06/27 07:28:25;;;;;;;;;;;;;;;26.27;100.00;97624.59;5058495;28;19932;-73
2022/06/27 07:30:51;;;;;;;;;;;;;;;26.10;100.00;97620.44;5059362;28;19947;-73
2022/06/27 07:33:18;;;;;;;;;;;;;;;25.97;100.00;97619.09;5040419;28;19956;-73
2022/06/27 07:35:44;;;;;;;;;;;;;;;26.21;100.00;97620.63;5056217;28;19925;-74
2022/06/27 07:38:12;;;;;;;;;;;;;;;26.42;100.00;97612.66;5056756;28;20642;-73
2022/06/27 07:40:38;;;;;;;;;;;;;;;26.43;100.00;97618.94;5059455;28;19984;-74
2022/06/27 07:43:09;;;;;;;;;;;;;;;26.51;100.00;97604.94;5059565;28;20150;-74
2022/06/27 07:45:38;;;;;;;;;;;;;;;26.20;100.00;97611.59;5048052;28;19939;-74
2022/06/27 07:48:05;;;;;;;;;;;;;;;26.23;100.00;97616.34;5048139;28;19921;-75
2022/06/27 07:50:39;;;;;;;;;;;;;;;26.40;100.00;97603.25;5051607;28;19925;-73
2022/06/27 07:53:12;;;;;;;;;;;;;;;26.10;100.00;97614.16;5059273;28;19986;-73
2022/06/27 07:55:39;;;;;;;;;;;;;;;26.36;100.00;97614.16;5055974;28;19925;-74
2022/06/27 07:58:08;;;;;;;;;;;;;;;26.28;100.00;97607.00;5055816;28;19996;-74
2022/06/27 08:00:34;;;;;;;;;;;;;;;26.45;100.00;97611.13;5047617;28;19983;-74
2022/06/27 08:03:36;;;;;;;;;;;;;;;26.61;100.00;97612.50;5047467;28;19921;-74
2022/06/27 08:05:47;;;;;;;;;;;;;;;26.63;100.00;97621.09;5052637;28;19928;-74
2022/06/27 08:08:14;;;;;;;;;;;;;;;26.61;100.00;97607.00;5040571;28;19924;-74
2022/06/27 08:10:40;;;;;;;;;;;;;;;26.60;100.00;97610.09;5055320;28;20608;-75
2022/06/27 08:13:08;;;;;;;;;;;;;;;26.53;100.00;97616.28;5054463;28;19973;-73
2022/06/27 08:15:35;;;;;;;;;;;;;;;26.56;100.00;97623.75;5046766;28;19925;-74
2022/06/27 08:18:02;;;;;;;;;;;;;;;26.49;100.00;97623.66;5046958;28;19978;-74
2022/06/27 08:20:28;;;;;;;;;;;;;;;26.48;100.00;97627.59;5050046;28;19978;-74
2022/06/27 08:22:55;;;;;;;;;;;;;;;26.57;100.00;97617.13;5040410;28;19920;-74
2022/06/27 08:25:22;;;;;;;;;;;;;;;26.83;100.00;97612.75;5056253;28;19985;-74
2022/06/27 08:27:48;;;;;;;;;;;;;;;26.93;100.00;97625.72;5055254;28;19935;-73
2022/06/27 08:30:16;;;;;;;;;;;;;;;27.11;100.00;97621.22;5055918;28;19941;-74
2022/06/27 08:32:43;;;;;;;;;;;;;;;27.33;100.00;97620.22;5057997;28;19925;-74
2022/06/27 08:35:09;;;;;;;;;;;;;;;27.43;98.56;97625.03;5057937;28;19924;-74
2022/06/27 08:37:36;;;;;;;;;;;;;;;27.30;99.83;97624.53;5053327;28;19925;-74
2022/06/27 08:40:04;;;;;;;;;;;;;;;27.03;100.00;97625.06;5054863;28;19931;-74
2022/06/27 08:42:31;;;;;;;;;;;;;;;27.24;100.00;97630.72;5040298;28;19960;-74
2022/06/27 08:44:58;;;;;;;;;;;;;;;27.56;100.00;97625.53;5058396;28;19929;-74
2022/06/27 08:47:27;;;;;;;;;;;;;;;27.63;100.00;97626.38;5056206;28;19984;-74
2022/06/27 08:49:54;;;;;;;;;;;;;;;27.76;99.86;97629.63;5055165;28;19999;-75
2022/06/27 08:52:20;;;;;;;;;;;;;;;27.92;97.89;97634.78;5039053;28;19954;-75
2022/06/27 08:54:47;;;;;;;;;;;;;;;27.90;98.55;97629.69;5059587;28;19927;-75
2022/06/27 08:57:13;;;;;;;;;;;;;;;27.86;100.00;97631.63;5061173;28;19924;-74
2022/06/27 08:59:40;;;;;;;;;;;;;;;27.91;97.43;97619.50;5059914;28;19952;-74
2022/06/27 09:02:07;;;;;;;;;;;;;;;27.85;98.64;97625.34;5060371;28;20012;-75
2022/06/27 09:09:03;;;;;;;;;;;;;;;27.95;100.00;97620.28;5121816;27;19979;-63
2022/06/27 09:11:31;;;;;;;;;;;;;;;28.11;99.70;97618.06;5115097;28;19936;-64
2022/06/27 09:13:57;;;;;;;;;;;;;;;28.21;98.20;97625.56;5115249;28;19924;-65
2022/06/27 09:16:24;;;;;;;;;;;;;;;28.25;97.64;97626.38;5117395;28;19967;-63
2022/06/27 09:18:50;;;;;;;;;;;;;;;28.20;98.55;97626.72;5118750;28;19926;-64
2022/06/27 09:21:17;;;;;;;;;;;;;;;28.19;99.99;97630.66;5118657;28;19930;-65
2022/06/27 09:23:47;;;;;;;;;;;;;;;28.25;99.93;97631.88;5115046;28;19966;-63
2022/06/27 09:26:17;;;;;;;;;;;;;;;28.22;100.00;97640.88;5115999;28;19942;-64
2022/06/27 09:28:45;;;;;;;;;;;;;;;28.43;100.00;97627.25;5118556;28;19942;-64
2022/06/27 09:31:13;;;;;;;;;;;;;;;28.52;99.89;97630.41;5117951;28;19949;-64
2022/06/27 09:33:40;;;;;;;;;;;;;;;28.63;97.99;97620.22;5114938;28;19924;-64
2022/06/27 09:36:11;;;;;;;;;;;;;;;28.55;98.96;97621.41;5115215;28;19994;-64
2022/06/27 09:38:39;;;;;;;;;;;;;;;28.70;97.47;97620.28;5115110;28;19924;-64
2022/06/27 09:41:06;;;;;;;;;;;;;;;28.79;96.61;97614.41;5114770;28;19931;-65
2022/06/27 09:43:35;;;;;;;;;;;;;;;28.74;96.80;97618.34;5106309;28;19924;-65
2022/06/27 09:46:03;;;;;;;;;;;;;;;28.72;96.93;97609.69;5106301;28;19951;-65
2022/06/27 09:48:31;;;;;;;;;;;;;;;28.93;95.98;97606.22;5105987;28;19935;-64
2022/06/27 09:51:01;;;;;;;;;;;;;;;28.70;95.69;97592.00;5114604;28;19924;-64
2022/06/27 09:53:27;;;;;;;;;;;;;;;28.66;95.24;97594.75;5115320;28;19981;-64
2022/06/27 09:55:55;;;;;;;;;;;;;;;28.68;95.50;97597.91;5114699;28;19960;-64
2022/06/27 09:58:22;;;;;;;;;;;;;;;28.83;91.35;97590.47;5116178;28;19929;-64
2022/06/27 10:00:50;;;;;;;;;;;;;;;28.84;91.65;97581.81;5117977;28;19964;-64
2022/06/27 10:03:17;;;;;;;;;;;;;;;28.79;90.87;97575.94;5116713;28;19924;-64
2022/06/27 10:05:45;;;;;;;;;;;;;;;28.78;89.87;97583.38;5114322;28;19983;-64
2022/06/27 10:08:13;;;;;;;;;;;;;;;28.82;89.61;97586.94;5130282;27;19924;-64
2022/06/27 10:11:10;;;;;;;;;;;;;;;28.86;89.95;97590.50;5137981;27;19923;-64
2022/06/27 10:13:37;;;;;;;;;;;;;;;29.12;89.02;97594.06;5099321;28;19929;-64
2022/06/27 10:16:10;;;;;;;;;;;;;;;29.36;87.33;97591.34;5124552;28;19954;-65
2022/06/27 10:18:51;;;;;;;;;;;;;;;29.37;89.04;97595.63;5120644;28;20000;-65
2022/06/27 10:21:26;;;;;;;;;;;;;;;29.45;87.59;97591.72;5122059;27;20348;-63
2022/06/27 10:24:07;;;;;;;;;;;;;;;29.63;86.98;97590.91;5102778;28;19946;-65
2022/06/27 10:26:40;;;;;;;;;;;;;;;29.66;86.01;97596.41;5111490;28;19924;-64
2022/06/27 10:29:25;;;;;;;;;;;;;;;29.77;85.05;97588.91;5112257;28;19979;-64
2022/06/27 10:31:52;;;;;;;;;;;;;;;29.82;84.46;97585.00;5112791;27;19931;-65
2022/06/27 10:34:19;;;;;;;;;;;;;;;29.83;87.06;97587.34;5112209;28;19930;-64
2022/06/27 10:36:45;;;;;;;;;;;;;;;29.74;88.14;97592.44;5112044;28;19992;-65
2022/06/27 10:39:19;;;;;;;;;;;;;;;29.83;87.71;97592.09;5112535;28;19974;-64
2022/06/27 10:41:46;;;;;;;;;;;;;;;29.89;86.00;97588.53;5123969;28;19924;-65
2022/06/27 10:44:28;;;;;;;;;;;;;;;29.93;87.14;97588.50;5123272;28;19928;-65
2022/06/27 10:46:56;;;;;;;;;;;;;;;30.03;84.92;97587.69;5120220;28;19979;-65
2022/06/27 10:49:24;;;;;;;;;;;;;;;30.06;82.21;97588.84;5122388;28;19928;-64
2022/06/27 10:51:50;;;;;;;;;;;;;;;29.96;82.20;97585.72;5126758;27;19924;-65
2022/06/27 10:54:17;;;;;;;;;;;;;;;30.21;81.05;97576.59;5121581;28;20370;-65
2022/06/27 10:56:44;;;;;;;;;;;;;;;30.14;79.69;97576.66;5123676;28;19931;-64
2022/06/27 10:59:30;;;;;;;;;;;;;;;30.30;78.18;97569.47;5123238;28;19923;-64
2022/06/27 11:02:11;;;;;;;;;;;;;;;30.18;75.15;97575.44;5119922;28;20004;-65
2022/06/27 11:04:38;;;;;;;;;;;;;;;30.45;74.53;97570.25;5119933;28;19974;-65
2022/06/27 11:07:05;;;;;;;;;;;;;;;30.73;71.72;97567.28;5119828;28;19924;-64
2022/06/27 11:09:35;;;;;;;;;;;;;;;30.85;72.42;97571.56;5123061;28;20429;-65
2022/06/27 11:12:01;;;;;;;;;;;;;;;30.79;71.44;97573.19;5123593;28;19956;-65
2022/06/27 11:14:28;;;;;;;;;;;;;;;30.97;71.27;97562.84;5120485;28;19935;-65
2022/06/27 11:16:54;;;;;;;;;;;;;;;30.77;74.22;97573.56;5119769;28;19925;-64
2022/06/27 11:22:18;;;;;;;;;;;;;;;30.77;74.89;97565.31;5123809;27;19924;-65
2022/06/27 11:24:46;;;;;;;;;;;;;;;30.91;73.44;97564.44;5111041;28;19935;-64
2022/06/27 11:27:12;;;;;;;;;;;;;;;31.09;68.42;97569.84;5110807;28;19924;-65
2022/06/27 11:32:22;;;;;;;;;;;;;;;31.30;65.52;97561.38;5126475;28;19946;-64
2022/06/27 11:34:51;;;;;;;;;;;;;;;30.89;68.64;97567.59;5110798;28;19931;-64
2022/06/27 11:37:18;;;;;;;;;;;;;;;31.02;68.92;97568.72;5110936;28;19928;-65
2022/06/27 11:39:57;;;;;;;;;;;;;;;30.79;65.36;97571.22;5111024;28;19928;-63
2022/06/27 11:42:28;;;;;;;;;;;;;;;31.04;65.46;97571.84;5110685;28;19964;-65
2022/06/27 11:45:04;;;;;;;;;;;;;;;31.20;64.56;97567.75;5110905;28;19924;-64
2022/06/27 11:47:31;;;;;;;;;;;;;;;31.17;64.85;97572.13;5110651;28;19931;-65
2022/06/27 11:50:02;;;;;;;;;;;;;;;31.25;63.36;97567.34;5110843;28;19924;-64
2022/06/27 11:52:35;;;;;;;;;;;;;;;31.22;60.16;97562.66;5123047;27;19966;-66
2022/06/27 11:55:06;;;;;;;;;;;;;;;31.18;63.42;97567.41;5122545;28;19931;-65
2022/06/27 11:57:33;;;;;;;;;;;;;;;31.38;64.42;97563.66;5118963;28;19959;-65
2022/06/27 12:00:01;;;;;;;;;;;;;;;31.21;68.11;97566.59;5119054;28;19920;-64
2022/06/27 12:02:29;;;;;;;;;;;;;;;31.29;68.47;97563.34;5121620;28;19924;-65
2022/06/27 12:05:07;;;;;;;;;;;;;;;31.38;68.24;97560.16;5122645;28;19959;-64
2022/06/27 12:07:48;;;;;;;;;;;;;;;31.46;64.00;97573.47;5110193;28;20019;-65
2022/06/27 12:10:15;;;;;;;;;;;;;;;31.58;62.58;97563.91;5110289;28;19955;-65
2022/06/27 12:12:44;;;;;;;;;;;;;;;31.69;61.38;97566.56;5110254;28;19924;-64
2022/06/27 12:15:20;;;;;;;;;;;;;;;31.60;62.84;97558.00;5110212;28;19924;-65
2022/06/27 12:17:46;;;;;;;;;;;;;;;31.57;62.73;97559.56;5110032;28;19931;-65
2022/06/27 12:20:14;;;;;;;;;;;;;;;31.41;62.87;97553.81;5112141;27;19932;-64
2022/06/27 12:22:40;;;;;;;;;;;;;;;31.29;62.64;97562.59;5122106;28;19946;-64
2022/06/27 12:25:07;;;;;;;;;;;;;;;31.66;60.22;97554.34;5121911;28;19981;-65
2022/06/27 12:27:33;;;;;;;;;;;;;;;32.11;58.16;97563.34;5118435;28;19979;-64
2022/06/27 12:29:59;;;;;;;;;;;;;;;32.16;60.33;97562.09;5118471;28;19928;-65
2022/06/27 12:32:26;;;;;;;;;;;;;;;32.31;56.95;97563.53;5120750;28;19951;-65
2022/06/27 12:34:52;;;;;;;;;;;;;;;32.39;53.83;97563.00;5121962;28;19924;-64
2022/06/27 12:37:20;;;;;;;;;;;;;;;32.56;54.03;97567.53;5120253;28;20388;-64
2022/06/27 12:39:46;;;;;;;;;;;;;;;32.22;54.72;97563.25;5118032;28;20200;-65
2022/06/27 12:42:12;;;;;;;;;;;;;;;31.82;56.56;97557.34;5118691;28;19924;-65
2022/06/27 12:44:39;;;;;;;;;;;;;;;32.03;56.50;97550.84;5121855;28;19923;-65
2022/06/27 12:47:05;;;;;;;;;;;;;;;32.24;55.71;97555.31;5121818;28;19974;-65
2022/06/27 12:49:32;;;;;;;;;;;;;;;32.13;56.70;97562.94;5118191;28;19928;-65
2022/06/27 12:51:58;;;;;;;;;;;;;;;32.39;54.10;97556.69;5119600;28;19924;-65
2022/06/27 12:54:26;;;;;;;;;;;;;;;32.31;54.87;97556.00;5120382;28;19932;-66